Time;durP1;ratioP1;P1;durP2;ratioP2;P2;SDS_P1;SDS_P2;PMS_P1;PMS_P2;Temp;Humidity;BMP_temperature;BMP_pressure;BME280_temperature;BME280_humidity;BME280_pressure;Samples;Min_cycle;Max_cycle;Signal;HPM_P1;HPM_P2
2022/03/06 00:02:13;;;;;;;37.72;16.88;;;;;;;-142.75;100.00;79264.06;5004808;28;20061;-70
2022/03/06 00:04:38;;;;;;;34.80;16.27;;;;;;;-142.75;100.00;79262.09;4998868;28;20041;-69
2022/03/06 00:07:04;;;;;;;29.83;16.13;;;;;;;-142.75;100.00;79262.09;4995552;28;20073;-69
2022/03/06 00:09:30;;;;;;;34.38;16.27;;;;;;;-142.75;100.00;79260.13;4996060;28;20480;-69
2022/03/06 00:11:56;;;;;;;33.70;17.30;;;;;;;-142.75;100.00;79268.00;4998698;28;20029;-69
2022/03/06 00:14:21;;;;;;;30.02;16.02;;;;;;;-142.75;100.00;79266.03;4996780;28;20033;-69
2022/03/06 00:16:47;;;;;;;31.20;15.10;;;;;;;-142.75;100.00;79269.97;4993656;28;20032;-69
2022/03/06 00:19:12;;;;;;;33.63;17.25;;;;;;;-142.75;100.00;79279.84;5006894;28;20275;-71
2022/03/06 00:21:39;;;;;;;34.90;16.20;;;;;;;-142.75;100.00;79275.88;5032345;22;20038;-67
2022/03/06 00:24:05;;;;;;;33.27;16.40;;;;;;;-142.75;100.00;79287.72;5009456;28;20662;-64
2022/03/06 00:26:30;;;;;;;37.67;17.03;;;;;;;-142.75;100.00;79287.72;5011466;28;20450;-65
2022/03/06 00:28:56;;;;;;;34.90;16.20;;;;;;;-142.75;100.00;79295.59;5010044;28;20025;-65
2022/03/06 00:31:24;;;;;;;33.38;15.13;;;;;;;-142.75;100.00;79291.66;5011340;28;20045;-65
2022/03/06 00:33:50;;;;;;;32.57;16.23;;;;;;;-142.75;100.00;79295.59;5011509;28;20083;-67
2022/03/06 00:36:15;;;;;;;;;;;;;;;-142.75;100.00;79297.56;5011824;28;20017;-68
2022/03/06 00:38:41;;;;;;;31.20;15.17;;;;;;;-142.75;100.00;79297.56;5011037;28;20021;-68
2022/03/06 00:41:06;;;;;;;35.10;15.98;;;;;;;-142.75;100.00;79307.41;5011213;28;20022;-69
2022/03/06 00:43:32;;;;;;;29.25;15.77;;;;;;;-142.75;100.00;79303.47;5010068;28;20071;-69
2022/03/06 00:45:57;;;;;;;30.17;15.38;;;;;;;-142.75;100.00;79295.59;5011280;28;20112;-66
2022/03/06 00:48:22;;;;;;;29.17;14.35;;;;;;;-142.75;100.00;79309.38;5011047;28;20033;-66
2022/03/06 00:50:48;;;;;;;33.85;16.10;;;;;;;-142.75;100.00;79311.34;5010853;28;20033;-67
2022/03/06 00:53:13;;;;;;;32.38;14.20;;;;;;;-142.75;100.00;79317.25;5011005;28;20025;-66
2022/03/06 00:55:38;;;;;;;32.60;14.57;;;;;;;-142.75;100.00;79323.16;5011117;28;20037;-68
2022/03/06 00:58:07;;;;;;;29.07;14.73;;;;;;;-142.75;100.00;79323.16;5010788;28;20280;-69
2022/03/06 01:00:39;;;;;;;30.23;15.50;;;;;;;-142.75;100.00;79331.03;5011157;28;20061;-68
2022/03/06 01:03:07;;;;;;;29.00;14.57;;;;;;;-142.75;100.00;79338.94;5011167;28;20053;-69
2022/03/06 01:05:32;;;;;;;27.17;13.73;;;;;;;-142.75;100.00;79342.88;5011109;28;20053;-69
2022/03/06 01:07:58;;;;;;;30.48;14.93;;;;;;;-142.75;100.00;79350.75;5010766;28;20026;-68
2022/03/06 01:10:24;;;;;;;34.20;15.70;;;;;;;-142.75;100.00;79360.59;5009803;28;20045;-66
2022/03/06 01:12:49;;;;;;;32.67;15.75;;;;;;;-142.75;100.00;79358.63;5008469;28;20041;-65
2022/03/06 01:15:14;;;;;;;29.88;14.40;;;;;;;-142.75;100.00;79378.31;5011085;28;20502;-66
2022/03/06 01:17:40;;;;;;;31.83;15.07;;;;;;;-142.75;100.00;79388.16;4992275;28;20483;-66
2022/03/06 01:20:06;;;;;;;31.30;14.23;;;;;;;-142.75;100.00;79388.16;4992742;28;20352;-69
2022/03/06 01:22:32;;;;;;;28.40;14.90;;;;;;;-142.75;100.00;79394.09;5011160;28;20022;-68
2022/03/06 01:24:57;;;;;;;30.02;14.63;;;;;;;-142.75;100.00;79394.09;5010812;28;20030;-69
2022/03/06 01:27:22;;;;;;;27.73;13.17;;;;;;;-142.75;100.00;79405.91;5010920;28;20024;-69
2022/03/06 01:29:48;;;;;;;30.33;13.57;;;;;;;-142.75;100.00;79401.97;5010461;28;20268;-69
2022/03/06 01:32:13;;;;;;;28.20;14.02;;;;;;;-142.75;100.00;79403.94;5010897;28;20028;-69
2022/03/06 01:34:38;;;;;;;26.67;12.60;;;;;;;-142.75;100.00;79403.94;5010735;28;21429;-69
2022/03/06 01:37:04;;;;;;;26.17;12.82;;;;;;;-142.75;100.00;79401.97;5010712;28;20438;-69
2022/03/06 01:39:29;;;;;;;25.35;12.48;;;;;;;-142.75;100.00;79409.84;5010431;28;20026;-69
2022/03/06 01:41:55;;;;;;;27.83;13.20;;;;;;;-142.75;100.00;79437.41;5009391;28;20071;-69
2022/03/06 01:44:20;;;;;;;31.37;14.43;;;;;;;-142.75;100.00;79443.31;5010710;28;20290;-69
2022/03/06 01:46:46;;;;;;;27.90;12.88;;;;;;;-142.75;100.00;79439.38;5010740;28;20312;-68
2022/03/06 01:49:11;;;;;;;;;;;;;;;-142.75;100.00;79437.41;5010878;28;20026;-68
2022/03/06 01:51:37;;;;;;;26.63;13.07;;;;;;;-142.75;100.00;79431.50;5010541;28;20025;-68
2022/03/06 01:54:03;;;;;;;23.95;12.90;;;;;;;-142.75;100.00;79427.56;5010437;28;20033;-68
2022/03/06 01:56:28;;;;;;;26.30;12.38;;;;;;;-142.75;100.00;79421.66;5010552;28;20435;-68
2022/03/06 01:58:55;;;;;;;23.05;12.40;;;;;;;-142.75;100.00;79427.56;5010309;28;20026;-69
2022/03/06 02:01:20;;;;;;;23.03;11.93;;;;;;;-142.75;100.00;79437.41;5010575;28;20109;-69
2022/03/06 02:03:46;;;;;;;28.27;13.15;;;;;;;-142.75;100.00;79431.50;5012728;28;20105;-68
2022/03/06 02:06:11;;;;;;;23.55;12.27;;;;;;;-142.75;100.00;79421.66;5014167;28;20439;-69
2022/03/06 02:08:36;;;;;;;25.92;12.25;;;;;;;-142.75;100.00;79415.75;5013820;28;20117;-68
2022/03/06 02:11:03;;;;;;;23.40;11.30;;;;;;;-142.75;100.00;79423.63;5014109;28;20058;-68
2022/03/06 02:13:28;;;;;;;;;;;;;;;-142.75;100.00;79421.66;5014415;28;20052;-68
2022/03/06 02:15:54;;;;;;;22.63;11.30;;;;;;;-142.75;100.00;79423.63;5014029;28;19913;-68
2022/03/06 02:18:22;;;;;;;25.55;12.40;;;;;;;-142.75;100.00;79421.66;5012433;28;20125;-69
2022/03/06 02:20:47;;;;;;;23.30;12.07;;;;;;;-142.75;100.00;79423.63;5013667;28;20029;-68
2022/03/06 02:23:13;;;;;;;21.60;11.85;;;;;;;-142.75;100.00;79431.50;5013836;28;20026;-68
2022/03/06 02:25:39;;;;;;;22.98;12.23;;;;;;;-142.75;100.00;79425.59;5013938;28;20033;-69
2022/03/06 02:28:09;;;;;;;20.52;11.45;;;;;;;-142.75;100.00;79429.53;5013506;28;20404;-68
2022/03/06 02:30:39;;;;;;;21.97;11.40;;;;;;;-142.75;100.00;79431.50;5013880;28;20037;-69
2022/03/06 02:33:07;;;;;;;23.40;12.07;;;;;;;-142.75;100.00;79433.47;5013660;28;20468;-69
2022/03/06 02:35:34;;;;;;;24.00;13.03;;;;;;;-142.75;100.00;79431.50;5013690;28;20108;-68
2022/03/06 02:37:59;;;;;;;20.73;11.77;;;;;;;-142.75;100.00;79427.56;5013254;28;20030;-68
2022/03/06 02:40:24;;;;;;;21.17;11.50;;;;;;;-142.75;100.00;79423.63;5012208;28;20175;-67
2022/03/06 02:42:52;;;;;;;22.88;12.48;;;;;;;-142.75;100.00;79437.41;5012311;28;20037;-68
2022/03/06 02:45:17;;;;;;;22.90;12.53;;;;;;;-142.75;100.00;79439.38;5013523;28;20036;-68
2022/03/06 02:47:44;;;;;;;22.80;11.83;;;;;;;-142.75;100.00;79433.47;5013391;28;20033;-68
2022/03/06 02:50:12;;;;;;;28.93;12.53;;;;;;;-142.75;100.00;79433.47;4996050;28;20348;-68
2022/03/06 02:52:38;;;;;;;21.77;12.10;;;;;;;-142.75;100.00;79447.28;4992414;28;20034;-68
2022/03/06 02:55:05;;;;;;;22.40;11.97;;;;;;;-142.75;100.00;79445.28;4993719;28;20070;-68
2022/03/06 02:57:31;;;;;;;23.47;11.90;;;;;;;-142.75;100.00;79447.28;4993684;28;20037;-68
2022/03/06 02:59:56;;;;;;;22.70;11.13;;;;;;;-142.75;100.00;79441.34;5004517;28;20042;-68
2022/03/06 03:02:21;;;;;;;21.92;11.98;;;;;;;-142.75;100.00;79437.41;5013213;28;20046;-69
2022/03/06 03:04:47;;;;;;;22.33;11.48;;;;;;;-142.75;100.00;79439.38;5013241;28;20048;-68
2022/03/06 03:07:12;;;;;;;23.35;12.05;;;;;;;-142.75;100.00;79439.38;5013058;28;20104;-68
2022/03/06 03:09:38;;;;;;;25.40;15.15;;;;;;;-142.75;100.00;79441.34;5012814;28;20399;-69
2022/03/06 03:12:04;;;;;;;21.50;12.00;;;;;;;-142.75;100.00;79445.28;5011658;28;20038;-68
2022/03/06 03:14:32;;;;;;;;;;;;;;;-142.75;100.00;79441.34;5013063;28;20056;-68
2022/03/06 03:16:58;;;;;;;22.53;12.03;;;;;;;-142.75;100.00;79451.22;5011485;28;19917;-68
2022/03/06 03:19:24;;;;;;;22.30;12.10;;;;;;;-142.75;100.00;79455.16;5012718;28;20041;-68
2022/03/06 03:21:49;;;;;;;22.15;11.45;;;;;;;-142.75;100.00;79472.88;5012550;28;20400;-69
2022/03/06 03:24:14;;;;;;;20.97;11.90;;;;;;;-142.75;100.00;79476.81;5012711;28;20030;-68
2022/03/06 03:26:39;;;;;;;21.63;12.20;;;;;;;-142.75;100.00;79482.72;5012728;28;20284;-68
2022/03/06 03:29:05;;;;;;;22.85;12.95;;;;;;;-142.75;100.00;79488.63;5012419;28;20073;-68
2022/03/06 03:31:30;;;;;;;26.08;12.40;;;;;;;-142.75;100.00;79492.56;5012583;28;20120;-68
2022/03/06 03:33:55;;;;;;;19.70;11.07;;;;;;;-142.75;100.00;79490.59;5012539;28;20032;-69
2022/03/06 03:36:21;;;;;;;21.47;12.40;;;;;;;-142.75;100.00;79486.66;5012550;28;20272;-68
2022/03/06 03:38:46;;;;;;;23.63;12.43;;;;;;;-142.75;100.00;79486.66;5010885;28;20280;-68
2022/03/06 03:41:12;;;;;;;23.38;13.48;;;;;;;-142.75;100.00;79478.78;5011191;28;20097;-68
2022/03/06 03:43:37;;;;;;;23.48;13.27;;;;;;;-142.75;100.00;79476.81;5012461;28;20026;-68
2022/03/06 03:46:03;;;;;;;22.60;12.30;;;;;;;-142.75;100.00;79480.75;5012308;28;20025;-68
2022/03/06 03:48:29;;;;;;;22.27;12.55;;;;;;;-142.75;100.00;79486.66;5012035;28;20030;-68
2022/03/06 03:50:55;;;;;;;;;;;;;;;-142.75;100.00;79480.75;5012535;28;20419;-68
2022/03/06 03:53:21;;;;;;;24.03;12.50;;;;;;;-142.75;100.00;79492.56;5012180;28;19917;-68
2022/03/06 03:55:47;;;;;;;22.83;11.83;;;;;;;-142.75;100.00;79486.66;5010954;28;20235;-68
2022/03/06 03:58:12;;;;;;;23.92;13.32;;;;;;;-142.75;100.00;79482.72;5011911;28;20400;-68
2022/03/06 04:00:38;;;;;;;21.35;12.95;;;;;;;-142.75;100.00;79486.66;5011974;28;20025;-68
2022/03/06 04:03:04;;;;;;;22.27;13.25;;;;;;;-142.75;100.00;79488.63;5012002;28;20499;-68
2022/03/06 04:05:29;;;;;;;26.13;13.38;;;;;;;-142.75;100.00;79494.53;5012217;28;20096;-68
2022/03/06 04:07:54;;;;;;;20.67;12.93;;;;;;;-142.75;100.00;79494.53;5011714;28;20057;-67
2022/03/06 04:10:20;;;;;;;23.35;12.60;;;;;;;-142.75;100.00;79498.47;5011908;28;20287;-68
2022/03/06 04:12:45;;;;;;;24.35;14.18;;;;;;;-142.75;100.00;79500.47;5011933;28;20116;-68
2022/03/06 04:15:10;;;;;;;22.58;13.18;;;;;;;-142.75;100.00;79492.56;5011755;28;20049;-68
2022/03/06 04:17:36;;;;;;;28.35;14.68;;;;;;;-142.75;100.00;79496.50;5011720;28;20029;-67
2022/03/06 04:20:02;;;;;;;23.83;13.93;;;;;;;-142.75;100.00;79498.47;5011265;28;20022;-68
2022/03/06 04:22:28;;;;;;;24.13;14.40;;;;;;;-142.75;100.00;79506.38;5011757;28;20025;-68
2022/03/06 04:24:53;;;;;;;24.05;14.07;;;;;;;-142.75;100.00;79504.41;5011035;28;20028;-69
2022/03/06 04:27:18;;;;;;;24.57;14.10;;;;;;;-142.75;100.00;79504.41;5011672;28;20021;-68
2022/03/06 04:29:44;;;;;;;26.40;15.65;;;;;;;-142.75;100.00;79508.34;5010068;28;20021;-69
2022/03/06 04:32:09;;;;;;;24.35;15.10;;;;;;;-142.75;100.00;79512.28;5011416;28;20038;-68
2022/03/06 04:34:35;;;;;;;24.13;15.38;;;;;;;-142.75;100.00;79512.28;5011409;28;20029;-68
2022/03/06 04:37:01;;;;;;;23.87;14.47;;;;;;;-142.75;100.00;79516.22;5010272;28;20029;-68
2022/03/06 04:39:26;;;;;;;25.23;15.63;;;;;;;-142.75;100.00;79524.09;5011105;28;20030;-68
2022/03/06 04:41:51;;;;;;;26.85;15.82;;;;;;;-142.75;100.00;79522.13;5011350;28;20495;-68
2022/03/06 04:44:17;;;;;;;26.50;15.43;;;;;;;-142.75;100.00;79533.94;5011356;28;20030;-68
2022/03/06 04:46:42;;;;;;;28.95;16.00;;;;;;;-142.75;100.00;79531.97;5011245;28;20545;-68
2022/03/06 04:49:07;;;;;;;26.45;15.30;;;;;;;-142.75;100.00;79533.94;5009778;28;20044;-68
2022/03/06 04:51:32;;;;;;;26.95;16.08;;;;;;;-142.75;100.00;79541.81;5011314;28;20025;-68
2022/03/06 04:53:58;;;;;;;24.70;15.75;;;;;;;-142.75;100.00;79543.78;5011306;28;20517;-68
2022/03/06 04:56:24;;;;;;;27.67;14.88;;;;;;;-142.75;100.00;79555.63;5011230;28;20029;-68
2022/03/06 04:58:50;;;;;;;25.10;14.83;;;;;;;-142.75;100.00;79559.56;5010964;28;20021;-68
2022/03/06 05:01:15;;;;;;;24.73;15.05;;;;;;;-142.75;100.00;79557.59;5010941;28;20021;-68
2022/03/06 05:03:40;;;;;;;25.40;14.60;;;;;;;-142.75;100.00;79563.50;5011130;28;20462;-68
2022/03/06 05:06:05;;;;;;;28.02;16.20;;;;;;;-142.75;100.00;79565.47;5009793;28;20017;-68
2022/03/06 05:08:31;;;;;;;21.85;13.80;;;;;;;-142.75;100.00;79577.28;5010803;28;20109;-69
2022/03/06 05:10:56;;;;;;;23.85;14.63;;;;;;;-142.75;100.00;79587.13;5011093;28;20033;-68
2022/03/06 05:13:22;;;;;;;26.30;15.93;;;;;;;-142.75;100.00;79610.78;5010994;28;20030;-68
2022/03/06 05:15:48;;;;;;;25.30;15.03;;;;;;;-142.75;100.00;79595.00;5010999;28;20030;-68
2022/03/06 05:18:14;;;;;;;22.85;15.32;;;;;;;-142.75;100.00;79595.00;5010637;28;20383;-68
2022/03/06 05:20:39;;;;;;;25.98;16.10;;;;;;;-142.75;100.00;79581.22;5009514;28;20514;-68
2022/03/06 05:23:04;;;;;;;29.55;16.25;;;;;;;-142.75;100.00;79589.09;5010905;28;20026;-68
2022/03/06 05:25:30;;;;;;;25.27;14.70;;;;;;;-142.75;100.00;79585.16;5010878;28;20446;-68
2022/03/06 05:27:56;;;;;;;21.80;14.65;;;;;;;-142.75;100.00;79581.22;5010557;28;20450;-69
2022/03/06 05:30:21;;;;;;;25.10;15.70;;;;;;;-142.75;100.00;79598.94;5010754;28;20064;-68
2022/03/06 05:32:47;;;;;;;21.45;14.25;;;;;;;-142.75;100.00;79595.00;5010908;28;20112;-68
2022/03/06 05:35:12;;;;;;;25.02;15.00;;;;;;;-142.75;100.00;79610.78;5010626;28;20488;-68
2022/03/06 05:37:38;;;;;;;24.92;14.73;;;;;;;-142.75;100.00;79608.81;5013043;28;20026;-68
2022/03/06 05:40:04;;;;;;;;;;;;;;;-142.75;100.00;79606.84;5014813;28;20030;-68
2022/03/06 05:42:30;;;;;;;28.70;14.77;;;;;;;-142.75;100.00;79608.81;5013439;28;19913;-68
2022/03/06 05:44:55;;;;;;;24.20;14.07;;;;;;;-142.75;100.00;79604.88;5014553;28;20029;-69
2022/03/06 05:47:20;;;;;;;24.40;15.10;;;;;;;-142.75;100.00;79602.88;5014044;28;20030;-68
2022/03/06 05:49:45;;;;;;;21.77;13.25;;;;;;;-142.75;100.00;79610.78;5014108;28;20030;-68
2022/03/06 05:52:11;;;;;;;23.42;14.00;;;;;;;-142.75;100.00;79612.75;5014532;28;20057;-68
2022/03/06 05:54:36;;;;;;;21.50;13.93;;;;;;;-142.75;100.00;79616.69;5014452;28;20060;-69
2022/03/06 05:57:01;;;;;;;21.55;14.18;;;;;;;-142.75;100.00;79624.56;5014305;28;20080;-68
2022/03/06 05:59:27;;;;;;;20.98;13.45;;;;;;;-142.75;100.00;79636.38;5014134;28;20109;-68
2022/03/06 06:01:52;;;;;;;21.98;13.65;;;;;;;-142.75;100.00;79636.38;5014281;28;20083;-68
2022/03/06 06:04:18;;;;;;;24.20;14.05;;;;;;;-142.75;100.00;79632.44;5014267;28;20025;-68
2022/03/06 06:06:43;;;;;;;23.25;14.35;;;;;;;-142.75;100.00;79632.44;5014040;28;20102;-68
2022/03/06 06:09:09;;;;;;;19.75;13.27;;;;;;;-142.75;100.00;79638.34;5013959;28;20034;-69
2022/03/06 06:11:34;;;;;;;23.70;14.23;;;;;;;-142.75;100.00;79648.19;5012860;28;20061;-68
2022/03/06 06:13:59;;;;;;;23.87;13.37;;;;;;;-142.75;100.00;79648.19;5014038;28;20053;-68
2022/03/06 06:16:25;;;;;;;21.20;13.15;;;;;;;-142.75;100.00;79644.25;5014137;28;20307;-67
2022/03/06 06:18:50;;;;;;;22.45;13.48;;;;;;;-142.75;100.00;79650.16;5013675;28;20056;-68
2022/03/06 06:21:18;;;;;;;23.08;13.45;;;;;;;-142.75;100.00;79646.22;5051193;22;20060;-67
2022/03/06 06:23:44;;;;;;;23.33;14.50;;;;;;;-142.75;100.00;79652.13;5051766;28;20475;-68
2022/03/06 06:26:10;;;;;;;22.45;13.55;;;;;;;-142.75;100.00;79654.13;5051829;28;20024;-67
2022/03/06 06:28:35;;;;;;;22.67;13.93;;;;;;;-142.75;100.00;79652.13;5053262;28;20072;-67
2022/03/06 06:31:01;;;;;;;21.98;13.52;;;;;;;-142.75;100.00;79658.06;5032272;28;20033;-67
2022/03/06 06:33:27;;;;;;;20.95;12.80;;;;;;;-142.75;100.00;79644.25;5033132;28;20108;-67
2022/03/06 06:35:52;;;;;;;25.42;14.75;;;;;;;-142.75;100.00;79646.22;5032372;28;20025;-67
2022/03/06 06:38:17;;;;;;;20.23;13.63;;;;;;;-142.75;100.00;79634.41;5033307;28;20054;-67
2022/03/06 06:40:43;;;;;;;22.92;14.13;;;;;;;-142.75;100.00;79622.59;5032216;28;20025;-67
2022/03/06 06:43:08;;;;;;;23.67;13.50;;;;;;;-142.75;100.00;79608.81;5033572;28;20056;-67
2022/03/06 06:45:33;;;;;;;21.65;13.32;;;;;;;-142.75;100.00;79596.97;5033308;28;20106;-67
2022/03/06 06:47:59;;;;;;;20.65;13.07;;;;;;;-142.75;100.00;79583.19;5032618;28;20018;-67
2022/03/06 06:50:24;;;;;;;21.23;12.82;;;;;;;-142.75;100.00;79596.97;5033228;28;20028;-67
2022/03/06 06:52:49;;;;;;;21.38;12.20;;;;;;;-142.75;100.00;79614.72;5033382;28;20044;-67
2022/03/06 06:55:14;;;;;;;22.47;12.67;;;;;;;-142.75;100.00;79610.78;5033135;28;20470;-67
2022/03/06 06:57:40;;;;;;;18.95;11.63;;;;;;;-142.75;100.00;79598.94;5031950;28;20037;-67
2022/03/06 07:00:07;;;;;;;20.87;11.73;;;;;;;-142.75;100.00;79587.13;5032830;28;20029;-67
2022/03/06 07:02:32;;;;;;;18.97;11.37;;;;;;;-142.75;100.00;79575.31;5025590;28;20261;-67
2022/03/06 07:04:57;;;;;;;19.58;11.65;;;;;;;-142.75;100.00;79567.44;5031038;28;20554;-67
2022/03/06 07:07:24;;;;;;;20.37;11.60;;;;;;;-142.75;100.00;79579.25;5031675;28;20049;-67
2022/03/06 07:09:49;;;;;;;21.40;11.67;;;;;;;-142.75;100.00;79565.47;5032794;28;20032;-67
2022/03/06 07:12:14;;;;;;;20.92;11.88;;;;;;;-142.75;100.00;79547.72;5032898;28;20025;-67
2022/03/06 07:14:39;;;;;;;21.40;11.95;;;;;;;-142.75;100.00;79537.88;5032710;28;20506;-67
2022/03/06 07:17:05;;;;;;;19.77;12.13;;;;;;;-142.75;100.00;79510.31;5031466;28;20037;-67
2022/03/06 07:19:30;;;;;;;17.97;10.97;;;;;;;-142.75;100.00;79514.25;5031266;28;20284;-67
2022/03/06 07:21:55;;;;;;;19.40;12.15;;;;;;;-142.75;100.00;79496.50;5032696;28;20033;-67
2022/03/06 07:24:21;;;;;;;20.27;10.85;;;;;;;-142.75;100.00;79480.75;5031531;28;20049;-66
2022/03/06 07:26:46;;;;;;;16.13;10.88;;;;;;;-142.75;100.00;79474.84;5031347;28;20025;-67
2022/03/06 07:29:11;;;;;;;17.27;10.97;;;;;;;-142.75;100.00;79476.81;5032169;28;20021;-67
2022/03/06 07:31:36;;;;;;;16.53;10.47;;;;;;;-142.75;100.00;79468.94;5031068;28;20279;-67
2022/03/06 07:34:02;;;;;;;18.73;11.52;;;;;;;-142.75;100.00;79472.88;5031141;28;20296;-67
2022/03/06 07:36:27;;;;;;;15.98;9.48;;;;;;;-142.75;100.00;79468.94;5032371;28;20036;-67
2022/03/06 07:38:53;;;;;;;19.60;12.03;;;;;;;-142.75;100.00;79453.19;5032158;28;20029;-67
2022/03/06 07:41:18;;;;;;;16.70;10.32;;;;;;;-142.75;100.00;79470.91;5032141;28;20288;-67
2022/03/06 07:43:44;;;;;;;19.08;11.90;;;;;;;-142.75;100.00;79466.97;5031059;28;20099;-67
2022/03/06 07:46:10;;;;;;;19.05;9.93;;;;;;;-142.75;100.00;79466.97;5032200;28;20029;-67
2022/03/06 07:48:35;;;;;;;17.58;11.77;;;;;;;-142.75;100.00;79443.31;5017532;28;20071;-67
2022/03/06 07:51:01;;;;;;;17.02;11.32;;;;;;;-142.75;100.00;79457.13;5031619;28;20442;-67
2022/03/06 07:53:26;;;;;;;16.60;10.00;;;;;;;-142.75;100.00;79421.66;5032168;28;20040;-67
2022/03/06 07:55:52;;;;;;;18.33;10.43;;;;;;;-142.75;100.00;79386.19;5032137;28;20029;-67
2022/03/06 07:58:17;;;;;;;20.90;11.55;;;;;;;-142.75;100.00;79368.47;5031880;28;20411;-67
2022/03/06 08:00:43;;;;;;;17.43;10.50;;;;;;;-142.75;100.00;79362.56;5029823;28;20029;-67
2022/03/06 08:03:08;;;;;;;20.00;11.18;;;;;;;-142.75;100.00;79338.94;5030844;28;20080;-67
2022/03/06 08:05:33;;;;;;;16.63;9.95;;;;;;;-142.75;100.00;79335.00;5031915;28;20037;-67
2022/03/06 08:07:59;;;;;;;15.45;10.32;;;;;;;-142.75;100.00;79297.56;5016212;28;20160;-69
2022/03/06 08:10:24;;;;;;;19.00;11.18;;;;;;;-142.75;100.00;79311.34;5030521;28;20021;-66
2022/03/06 08:12:49;;;;;;;14.57;9.67;;;;;;;-142.75;100.00;79293.63;5031673;28;20510;-66
2022/03/06 08:15:15;;;;;;;16.67;9.80;;;;;;;-142.75;100.00;79275.88;5031498;28;20293;-67
2022/03/06 08:17:40;;;;;;;16.48;10.02;;;;;;;-142.75;100.00;79264.06;5030454;28;20029;-67
2022/03/06 08:20:07;;;;;;;15.35;9.82;;;;;;;-142.75;100.00;79248.31;5031511;28;20029;-68
2022/03/06 08:22:33;;;;;;;15.70;9.87;;;;;;;-142.75;100.00;79232.56;5030824;28;20392;-67
2022/03/06 08:25:00;;;;;;;15.85;10.57;;;;;;;-142.75;100.00;79228.63;5029229;28;20025;-67
2022/03/06 08:27:25;;;;;;;;;;;;;;;-142.75;100.00;79201.03;5030918;28;20025;-67
2022/03/06 08:29:50;;;;;;;16.20;8.80;;;;;;;-142.75;100.00;79222.72;5030119;28;19967;-67
2022/03/06 08:32:16;;;;;;;14.47;8.37;;;;;;;-142.75;100.00;79268.00;5028944;28;20463;-67
2022/03/06 08:34:41;;;;;;;15.77;8.82;;;;;;;-142.75;100.00;79238.47;5013857;28;20285;-66
2022/03/06 08:37:07;;;;;;;12.95;8.30;;;;;;;-142.75;100.00;79163.63;5010593;28;20459;-67
2022/03/06 08:39:33;;;;;;;14.50;8.48;;;;;;;-142.75;100.00;79199.06;5029556;28;20044;-67
2022/03/06 08:41:58;;;;;;;14.95;8.60;;;;;;;-142.75;100.00;79173.47;5030399;28;20025;-66
2022/03/06 08:44:24;;;;;;;11.77;8.27;;;;;;;-142.75;100.00;79149.81;5030217;28;20774;-67
2022/03/06 08:46:49;;;;;;;13.20;7.18;;;;;;;-142.75;100.00;79120.28;5030213;28;20545;-68
2022/03/06 08:49:14;;;;;;;10.38;6.97;;;;;;;-142.75;100.00;79080.88;5029020;28;20483;-67
2022/03/06 08:51:40;;;;;;;12.70;6.80;;;;;;;-142.75;100.00;79128.16;5028675;28;20048;-67
2022/03/06 08:54:05;;;;;;;12.43;6.47;;;;;;;-142.75;100.00;79098.63;5030068;28;20031;-68
2022/03/06 08:56:30;;;;;;;10.43;6.70;;;;;;;-142.75;100.00;79049.38;5017671;28;20389;-67
2022/03/06 08:58:56;;;;;;;9.87;6.30;;;;;;;-142.75;100.00;79063.16;5008656;28;20033;-67
2022/03/06 09:01:21;;;;;;;7.15;5.25;;;;;;;-142.75;100.00;79074.97;5010303;28;20109;-66
2022/03/06 09:03:47;;;;;;;11.95;5.85;;;;;;;-142.75;100.00;79069.06;5028565;28;20143;-66
2022/03/06 09:06:12;;;;;;;10.30;5.30;;;;;;;-142.75;100.00;79080.88;5029619;28;20021;-67
2022/03/06 09:08:38;;;;;;;9.27;5.18;;;;;;;-142.75;100.00;79096.66;5029685;28;20105;-67
2022/03/06 09:11:06;;;;;;;10.02;5.07;;;;;;;-142.75;100.00;79102.56;5028131;28;20021;-67
2022/03/06 09:13:33;;;;;;;7.27;4.53;;;;;;;-142.75;100.00;79122.25;5029584;28;20030;-67
2022/03/06 09:15:59;;;;;;;10.97;5.17;;;;;;;-142.75;100.00;79098.63;5011531;28;20037;-67
2022/03/06 09:18:24;;;;;;;10.85;4.97;;;;;;;-142.75;100.00;79043.47;5025124;28;20017;-67
2022/03/06 09:20:50;;;;;;;11.48;4.70;;;;;;;-142.75;100.00;79023.75;5029708;28;20029;-67
2022/03/06 09:23:16;;;;;;;8.13;5.30;;;;;;;-142.75;100.00;79013.91;5029564;28;20021;-67
2022/03/06 09:25:41;;;;;;;8.80;4.75;;;;;;;-142.75;100.00;79076.94;5029996;28;20026;-67
2022/03/06 09:28:07;;;;;;;9.65;4.57;;;;;;;-142.75;100.00;79082.84;5029423;28;20025;-67
2022/03/06 09:30:32;;;;;;;7.18;4.75;;;;;;;-142.75;100.00;79051.34;5011063;28;20037;-66
2022/03/06 09:32:58;;;;;;;6.43;4.47;;;;;;;-142.75;100.00;79041.50;5028675;28;20108;-66
2022/03/06 09:35:24;;;;;;;7.35;4.68;;;;;;;-142.75;100.00;78966.66;5029503;28;20060;-68
2022/03/06 09:37:49;;;;;;;8.98;4.70;;;;;;;-142.75;100.00;78982.41;5029042;28;20034;-68
2022/03/06 09:40:15;;;;;;;7.82;4.65;;;;;;;-142.75;100.00;79015.88;5020661;28;20022;-67
2022/03/06 09:42:40;;;;;;;10.13;4.45;;;;;;;-142.75;100.00;78970.59;5027663;28;20033;-68
2022/03/06 09:45:09;;;;;;;7.53;4.78;;;;;;;-142.75;100.00;78964.69;5028077;28;20025;-67
2022/03/06 09:47:36;;;;;;;10.03;5.00;;;;;;;-142.75;100.00;78909.53;5029473;28;20025;-68
2022/03/06 09:50:03;;;;;;;8.27;4.37;;;;;;;-142.75;100.00;78919.38;5029123;28;20033;-67
2022/03/06 09:52:29;;;;;;;10.20;4.10;;;;;;;-142.75;100.00;78878.00;5027910;28;20056;-67
2022/03/06 09:54:54;;;;;;;10.27;4.63;;;;;;;-142.75;100.00;78878.00;5017336;28;20445;-67
2022/03/06 09:57:21;;;;;;;6.97;4.03;;;;;;;-142.75;100.00;78889.81;5029248;28;20051;-67
2022/03/06 09:59:46;;;;;;;6.13;4.20;;;;;;;-142.75;100.00;78901.66;5029087;28;20029;-67
2022/03/06 10:02:12;;;;;;;6.63;4.13;;;;;;;-142.75;100.00;78909.53;5029307;28;20661;-67
2022/03/06 10:04:38;;;;;;;8.63;4.47;;;;;;;-142.75;100.00;78885.88;5027981;28;20068;-67
2022/03/06 10:07:12;;;;;;;8.43;4.90;;;;;;;-142.75;98.20;78937.09;5029073;28;20075;-67
2022/03/06 10:09:47;;;;;;;6.40;4.40;;;;;;;-142.75;97.84;78881.94;5028929;28;20029;-66
2022/03/06 10:12:31;;;;;;;8.07;4.20;;;;;;;-142.75;97.09;78901.66;5027853;28;20036;-67
2022/03/06 10:15:02;;;;;;;7.57;4.10;;;;;;;-142.75;95.37;78840.59;5029054;28;20034;-67
2022/03/06 10:17:30;;;;;;;6.90;4.00;;;;;;;-142.75;98.76;78813.00;5027969;28;20125;-67
2022/03/06 10:19:59;;;;;;;8.87;4.77;;;;;;;-142.75;97.30;78755.91;5029009;28;20164;-68
2022/03/06 10:22:30;;;;;;;6.57;4.20;;;;;;;-142.75;90.01;78712.56;5027612;28;20029;-68
2022/03/06 10:24:58;;;;;;;6.23;4.10;;;;;;;-142.75;89.40;78763.78;5033272;28;20017;-68
2022/03/06 10:27:57;;;;;;;8.00;4.50;;;;;;;-142.75;88.74;78712.56;5033616;28;20478;-67
2022/03/06 10:30:37;;;;;;;6.73;4.30;;;;;;;-142.75;86.46;78704.69;5032255;28;20124;-68
2022/03/06 10:33:16;;;;;;;5.53;3.63;;;;;;;-142.75;87.13;78696.81;5031880;28;20025;-68
2022/03/06 10:35:44;;;;;;;6.87;4.37;;;;;;;-142.75;84.29;78740.13;5032285;28;20025;-68
2022/03/06 10:38:26;;;;;;;10.03;4.50;;;;;;;-142.75;87.43;78700.75;5031748;28;20029;-68
2022/03/06 10:40:52;;;;;;;7.80;4.20;;;;;;;-142.75;85.09;78618.03;5033352;28;20037;-68
2022/03/06 10:43:19;;;;;;;7.95;3.92;;;;;;;-142.75;81.43;78649.53;5032048;28;20025;-68
2022/03/06 10:45:46;;;;;;;8.87;4.57;;;;;;;-142.75;81.64;78663.31;5016134;28;20026;-67
2022/03/06 10:48:12;;;;;;;12.30;3.93;;;;;;;-142.75;80.52;78688.94;5032385;28;20021;-68
2022/03/06 10:50:38;;;;;;;6.60;4.13;;;;;;;-142.75;83.83;78673.19;5033154;28;20082;-68
2022/03/06 10:53:36;;;;;;;6.00;4.15;;;;;;;-142.75;80.71;78621.97;5031798;28;20029;-68
2022/03/06 10:56:15;;;;;;;9.80;3.90;;;;;;;-142.75;79.41;78564.84;4998717;28;20041;-67